sensor_id;sensor_type;location;lat;lon;timestamp;pressure;altitude;pressure_sealevel;temperature;humidity
24422;BME280;12600;53.326;-6.298;2023-04-01T00:00:14;99824.56;;;12.04;92.79
24422;BME280;12600;53.326;-6.298;2023-04-01T00:03:04;99843.22;;;12.02;93.34
24422;BME280;12600;53.326;-6.298;2023-04-01T00:05:54;99833.06;;;12.02;92.63
24422;BME280;12600;53.326;-6.298;2023-04-01T00:08:46;99840.28;;;12.07;92.85
24422;BME280;12600;53.326;-6.298;2023-04-01T00:11:37;99846.44;;;12.04;92.75
24422;BME280;12600;53.326;-6.298;2023-04-01T00:14:27;99851.00;;;12.00;92.67
24422;BME280;12600;53.326;-6.298;2023-04-01T00:17:16;99847.56;;;12.03;93.09
24422;BME280;12600;53.326;-6.298;2023-04-01T00:20:07;99854.97;;;12.02;93.01
24422;BME280;12600;53.326;-6.298;2023-04-01T00:22:58;99852.72;;;12.04;92.78
24422;BME280;12600;53.326;-6.298;2023-04-01T00:25:48;99849.19;;;12.04;92.78
24422;BME280;12600;53.326;-6.298;2023-04-01T00:28:39;99847.25;;;12.04;92.53
24422;BME280;12600;53.326;-6.298;2023-04-01T00:31:29;99844.63;;;12.08;92.54
24422;BME280;12600;53.326;-6.298;2023-04-01T00:34:21;99849.19;;;12.04;92.71
24422;BME280;12600;53.326;-6.298;2023-04-01T00:37:11;99852.72;;;12.04;92.64
24422;BME280;12600;53.326;-6.298;2023-04-01T00:40:00;99849.06;;;12.00;92.27
24422;BME280;12600;53.326;-6.298;2023-04-01T00:42:49;99857.84;;;12.06;92.60
24422;BME280;12600;53.326;-6.298;2023-04-01T00:45:42;99853.72;;;12.00;92.64
24422;BME280;12600;53.326;-6.298;2023-04-01T00:48:34;99850.88;;;11.96;93.01
24422;BME280;12600;53.326;-6.298;2023-04-01T00:51:27;99860.34;;;11.99;93.00
24422;BME280;12600;53.326;-6.298;2023-04-01T00:54:19;99861.13;;;11.99;93.05
24422;BME280;12600;53.326;-6.298;2023-04-01T00:57:13;99864.34;;;12.01;93.15
24422;BME280;12600;53.326;-6.298;2023-04-01T01:00:08;99853.38;;;12.01;93.30
24422;BME280;12600;53.326;-6.298;2023-04-01T01:03:00;99842.19;;;11.94;92.77
24422;BME280;12600;53.326;-6.298;2023-04-01T01:06:10;99858.41;;;11.99;92.92
24422;BME280;12600;53.326;-6.298;2023-04-01T01:09:13;99857.59;;;11.99;93.04
24422;BME280;12600;53.326;-6.298;2023-04-01T01:12:11;99801.34;;;11.56;92.79
24422;BME280;12600;53.326;-6.298;2023-04-01T01:15:11;99857.16;;;11.97;93.11
24422;BME280;12600;53.326;-6.298;2023-04-01T01:18:13;99868.19;;;11.88;92.78
24422;BME280;12600;53.326;-6.298;2023-04-01T01:21:49;99859.28;;;11.91;93.11
24422;BME280;12600;53.326;-6.298;2023-04-01T01:24:59;99859.28;;;11.91;92.72
24422;BME280;12600;53.326;-6.298;2023-04-01T01:28:00;99870.34;;;11.95;92.87
24422;BME280;12600;53.326;-6.298;2023-04-01T01:31:03;99867.16;;;11.93;92.83
24422;BME280;12600;53.326;-6.298;2023-04-01T01:34:11;99868.50;;;11.87;92.91
24422;BME280;12600;53.326;-6.298;2023-04-01T01:37:08;99866.59;;;11.87;92.99
24422;BME280;12600;53.326;-6.298;2023-04-01T01:40:03;99876.84;;;11.90;92.94
24422;BME280;12600;53.326;-6.298;2023-04-01T01:42:59;99872.38;;;11.86;93.26
24422;BME280;12600;53.326;-6.298;2023-04-01T01:45:53;99876.84;;;11.90;93.02
24422;BME280;12600;53.326;-6.298;2023-04-01T01:48:45;99872.53;;;11.89;92.59
24422;BME280;12600;53.326;-6.298;2023-04-01T01:51:34;99876.94;;;11.82;93.08
24422;BME280;12600;53.326;-6.298;2023-04-01T01:54:28;99878.66;;;11.86;92.73
24422;BME280;12600;53.326;-6.298;2023-04-01T01:57:22;99870.97;;;11.80;93.11
24422;BME280;12600;53.326;-6.298;2023-04-01T02:00:16;99867.28;;;11.75;92.97
24422;BME280;12600;53.326;-6.298;2023-04-01T02:03:08;99878.53;;;11.83;93.35
24422;BME280;12600;53.326;-6.298;2023-04-01T02:06:00;99879.03;;;11.76;93.29
24422;BME280;12600;53.326;-6.298;2023-04-01T02:08:53;99888.81;;;11.86;92.87
24422;BME280;12600;53.326;-6.298;2023-04-01T02:11:48;99879.00;;;11.85;92.96
24422;BME280;12600;53.326;-6.298;2023-04-01T02:14:43;99888.69;;;11.82;93.18
24422;BME280;12600;53.326;-6.298;2023-04-01T02:17:34;99893.97;;;11.78;93.25
24422;BME280;12600;53.326;-6.298;2023-04-01T02:20:28;99893.34;;;11.82;93.22
24422;BME280;12600;53.326;-6.298;2023-04-01T02:23:18;99897.06;;;11.77;93.25
24422;BME280;12600;53.326;-6.298;2023-04-01T02:26:11;99907.38;;;11.80;92.91
24422;BME280;12600;53.326;-6.298;2023-04-01T02:29:03;99907.22;;;11.76;93.20
24422;BME280;12600;53.326;-6.298;2023-04-01T02:31:55;99906.25;;;11.81;93.08
24422;BME280;12600;53.326;-6.298;2023-04-01T02:34:45;99911.38;;;11.83;93.19
24422;BME280;12600;53.326;-6.298;2023-04-01T02:37:34;99910.75;;;11.77;93.29
24422;BME280;12600;53.326;-6.298;2023-04-01T02:40:27;99912.03;;;11.80;92.85
24422;BME280;12600;53.326;-6.298;2023-04-01T02:43:16;99912.69;;;11.76;93.39
24422;BME280;12600;53.326;-6.298;2023-04-01T02:46:09;99904.22;;;11.69;93.11
24422;BME280;12600;53.326;-6.298;2023-04-01T02:48:58;99916.63;;;11.67;93.22
24422;BME280;12600;53.326;-6.298;2023-04-01T02:51:49;99924.16;;;11.70;93.26
24422;BME280;12600;53.326;-6.298;2023-04-01T02:54:39;99917.88;;;11.69;93.42
24422;BME280;12600;53.326;-6.298;2023-04-01T02:57:28;99909.22;;;11.67;93.07
24422;BME280;12600;53.326;-6.298;2023-04-01T03:00:18;99928.19;;;11.72;93.39
24422;BME280;12600;53.326;-6.298;2023-04-01T03:03:09;99915.38;;;11.64;93.30
24422;BME280;12600;53.326;-6.298;2023-04-01T03:06:04;99921.75;;;11.68;93.24
24422;BME280;12600;53.326;-6.298;2023-04-01T03:08:55;99928.03;;;11.69;93.54
24422;BME280;12600;53.326;-6.298;2023-04-01T03:11:44;99929.63;;;11.70;93.38
24422;BME280;12600;53.326;-6.298;2023-04-01T03:14:33;99930.59;;;11.74;93.28
24422;BME280;12600;53.326;-6.298;2023-04-01T03:17:23;99942.31;;;11.74;93.27
24422;BME280;12600;53.326;-6.298;2023-04-01T03:20:16;99937.19;;;11.73;93.08
24422;BME280;12600;53.326;-6.298;2023-04-01T03:23:05;99940.38;;;11.75;92.90
24422;BME280;12600;53.326;-6.298;2023-04-01T03:25:54;99943.13;;;11.75;93.33
24422;BME280;12600;53.326;-6.298;2023-04-01T03:28:44;99947.66;;;11.71;93.23
24422;BME280;12600;53.326;-6.298;2023-04-01T03:31:33;99947.66;;;11.71;93.64
24422;BME280;12600;53.326;-6.298;2023-04-01T03:34:23;99950.06;;;11.72;93.30
24422;BME280;12600;53.326;-6.298;2023-04-01T03:37:14;99949.94;;;11.69;93.37
24422;BME280;12600;53.326;-6.298;2023-04-01T03:40:05;99953.81;;;11.68;93.37
24422;BME280;12600;53.326;-6.298;2023-04-01T03:42:54;99956.00;;;11.74;93.28
24422;BME280;12600;53.326;-6.298;2023-04-01T03:45:45;99959.53;;;11.75;93.12
24422;BME280;12600;53.326;-6.298;2023-04-01T03:48:34;99956.19;;;11.69;93.26
24422;BME280;12600;53.326;-6.298;2023-04-01T03:51:24;99964.47;;;11.61;93.33
24422;BME280;12600;53.326;-6.298;2023-04-01T03:54:15;99974.88;;;11.67;93.22
24422;BME280;12600;53.326;-6.298;2023-04-01T03:57:05;99969.41;;;11.67;93.37
24422;BME280;12600;53.326;-6.298;2023-04-01T03:59:55;99979.22;;;11.68;93.58
24422;BME280;12600;53.326;-6.298;2023-04-01T04:02:44;99974.88;;;11.67;93.33
24422;BME280;12600;53.326;-6.298;2023-04-01T04:05:46;99974.78;;;11.64;93.45
24422;BME280;12600;53.326;-6.298;2023-04-01T04:08:38;99986.50;;;11.64;93.26
24422;BME280;12600;53.326;-6.298;2023-04-01T04:11:31;99986.34;;;11.61;92.99
24422;BME280;12600;53.326;-6.298;2023-04-01T04:14:21;99988.97;;;11.57;93.62
24422;BME280;12600;53.326;-6.298;2023-04-01T04:17:10;99984.63;;;11.56;93.73
24422;BME280;12600;53.326;-6.298;2023-04-01T04:20:06;99995.09;;;11.54;93.90
24422;BME280;12600;53.326;-6.298;2023-04-01T04:22:55;100001.50;;;11.58;93.83
24422;BME280;12600;53.326;-6.298;2023-04-01T04:25:54;99986.88;;;11.54;93.58
24422;BME280;12600;53.326;-6.298;2023-04-01T04:28:45;100003.00;;;11.56;93.90
24422;BME280;12600;53.326;-6.298;2023-04-01T04:31:37;99997.81;;;11.54;93.76
24422;BME280;12600;53.326;-6.298;2023-04-01T04:34:27;100000.78;;;11.49;93.98
24422;BME280;12600;53.326;-6.298;2023-04-01T04:37:16;100002.69;;;11.48;93.76
24422;BME280;12600;53.326;-6.298;2023-04-01T04:40:07;100010.91;;;11.48;93.80
24422;BME280;12600;53.326;-6.298;2023-04-01T04:42:57;100018.78;;;11.50;93.85
24422;BME280;12600;53.326;-6.298;2023-04-01T04:45:47;100014.91;;;11.51;94.00
24422;BME280;12600;53.326;-6.298;2023-04-01T04:48:37;100018.63;;;11.46;94.12
24422;BME280;12600;53.326;-6.298;2023-04-01T04:51:26;100026.53;;;11.48;94.41
24422;BME280;12600;53.326;-6.298;2023-04-01T04:54:15;100027.31;;;11.48;94.35
24422;BME280;12600;53.326;-6.298;2023-04-01T04:57:12;100034.72;;;11.48;94.57
24422;BME280;12600;53.326;-6.298;2023-04-01T05:00:09;100035.03;;;11.46;94.35
24422;BME280;12600;53.326;-6.298;2023-04-01T05:03:15;100038.00;;;11.62;93.73
24422;BME280;12600;53.326;-6.298;2023-04-01T05:06:06;100039.63;;;11.63;93.18
24422;BME280;12600;53.326;-6.298;2023-04-01T05:08:56;100051.69;;;11.62;93.22
24422;BME280;12600;53.326;-6.298;2023-04-01T05:11:45;100053.84;;;11.57;93.06
24422;BME280;12600;53.326;-6.298;2023-04-01T05:14:35;100044.03;;;11.56;93.02
24422;BME280;12600;53.326;-6.298;2023-04-01T05:17:29;100055.72;;;11.65;92.71
24422;BME280;12600;53.326;-6.298;2023-04-01T05:20:22;100060.56;;;11.59;92.97
24422;BME280;12600;53.326;-6.298;2023-04-01T05:23:13;100063.31;;;11.59;92.97
24422;BME280;12600;53.326;-6.298;2023-04-01T05:26:04;100064.44;;;11.58;92.78
24422;BME280;12600;53.326;-6.298;2023-04-01T05:28:54;100068.91;;;11.63;92.80
24422;BME280;12600;53.326;-6.298;2023-04-01T05:31:43;100072.66;;;11.58;92.50
24422;BME280;12600;53.326;-6.298;2023-04-01T05:34:33;100083.13;;;11.56;93.14
24422;BME280;12600;53.326;-6.298;2023-04-01T05:37:24;100077.44;;;11.61;92.31
24422;BME280;12600;53.326;-6.298;2023-04-01T05:40:14;100089.03;;;11.67;92.42
24422;BME280;12600;53.326;-6.298;2023-04-01T05:43:03;100024.06;;;11.26;92.35
24422;BME280;12600;53.326;-6.298;2023-04-01T05:45:52;100100.63;;;11.64;92.40
24422;BME280;12600;53.326;-6.298;2023-04-01T05:48:56;100096.31;;;11.54;92.58
24422;BME280;12600;53.326;-6.298;2023-04-01T05:51:47;100105.00;;;11.56;93.01
24422;BME280;12600;53.326;-6.298;2023-04-01T05:54:38;100106.16;;;11.55;92.61
24422;BME280;12600;53.326;-6.298;2023-04-01T05:57:27;100115.41;;;11.63;92.28
24422;BME280;12600;53.326;-6.298;2023-04-01T06:00:17;100115.28;;;11.59;92.61
24422;BME280;12600;53.326;-6.298;2023-04-01T06:03:08;100126.69;;;11.61;92.83
24422;BME280;12600;53.326;-6.298;2023-04-01T06:05:58;100127.50;;;11.62;92.79
24422;BME280;12600;53.326;-6.298;2023-04-01T06:08:49;100132.50;;;11.60;92.72
24422;BME280;12600;53.326;-6.298;2023-04-01T06:12:01;100136.66;;;11.66;92.69
24422;BME280;12600;53.326;-6.298;2023-04-01T06:15:29;100140.69;;;11.68;92.34
24422;BME280;12600;53.326;-6.298;2023-04-01T06:18:48;100144.88;;;11.66;92.67
24422;BME280;12600;53.326;-6.298;2023-04-01T06:22:13;100151.63;;;11.68;92.75
24422;BME280;12600;53.326;-6.298;2023-04-01T06:25:27;100160.13;;;11.75;92.60
24422;BME280;12600;53.326;-6.298;2023-04-01T06:32:25;100168.50;;;11.70;92.84
24422;BME280;12600;53.326;-6.298;2023-04-01T06:35:35;100168.81;;;11.77;92.65
24422;BME280;12600;53.326;-6.298;2023-04-01T06:38:47;100181.34;;;11.78;92.63
24422;BME280;12600;53.326;-6.298;2023-04-01T06:42:05;100181.69;;;11.77;92.69
24422;BME280;12600;53.326;-6.298;2023-04-01T06:45:10;100192.50;;;11.73;92.66
24422;BME280;12600;53.326;-6.298;2023-04-01T06:48:50;100202.63;;;11.82;92.38
24422;BME280;12600;53.326;-6.298;2023-04-01T06:52:08;100203.44;;;11.82;92.50
24422;BME280;12600;53.326;-6.298;2023-04-01T06:55:32;100220.50;;;11.88;92.57
24422;BME280;12600;53.326;-6.298;2023-04-01T06:58:39;100216.94;;;11.78;92.00
24422;BME280;12600;53.326;-6.298;2023-04-01T07:01:34;100237.91;;;11.83;92.23
24422;BME280;12600;53.326;-6.298;2023-04-01T07:04:31;100234.50;;;11.77;92.05
24422;BME280;12600;53.326;-6.298;2023-04-01T07:07:31;100238.56;;;11.71;91.81
24422;BME280;12600;53.326;-6.298;2023-04-01T07:10:33;100241.59;;;11.70;91.99
24422;BME280;12600;53.326;-6.298;2023-04-01T07:13:48;100252.53;;;11.70;91.67
24422;BME280;12600;53.326;-6.298;2023-04-01T07:16:43;100272.50;;;11.70;91.78
24422;BME280;12600;53.326;-6.298;2023-04-01T07:19:41;100278.47;;;11.72;91.79
24422;BME280;12600;53.326;-6.298;2023-04-01T07:22:35;100278.94;;;11.74;92.00
24422;BME280;12600;53.326;-6.298;2023-04-01T07:25:44;100281.84;;;11.69;91.71
24422;BME280;12600;53.326;-6.298;2023-04-01T07:28:51;100298.09;;;11.74;91.46
24422;BME280;12600;53.326;-6.298;2023-04-01T07:32:26;100297.63;;;11.72;91.79
24422;BME280;12600;53.326;-6.298;2023-04-01T07:35:28;100313.72;;;11.74;91.71
24422;BME280;12600;53.326;-6.298;2023-04-01T07:38:30;100315.47;;;11.70;91.42
24422;BME280;12600;53.326;-6.298;2023-04-01T07:41:34;100327.06;;;11.75;91.73
24422;BME280;12600;53.326;-6.298;2023-04-01T07:44:39;100331.41;;;11.76;91.52
24422;BME280;12600;53.326;-6.298;2023-04-01T07:47:50;100330.16;;;11.74;91.60
24422;BME280;12600;53.326;-6.298;2023-04-01T07:50:55;100337.56;;;11.82;91.69
24422;BME280;12600;53.326;-6.298;2023-04-01T07:53:53;100350.91;;;11.84;91.53
24422;BME280;12600;53.326;-6.298;2023-04-01T07:56:53;100356.03;;;11.94;91.61
24422;BME280;12600;53.326;-6.298;2023-04-01T08:00:02;100359.78;;;11.89;91.52
24422;BME280;12600;53.326;-6.298;2023-04-01T08:03:24;100364.13;;;11.82;90.41
24422;BME280;12600;53.326;-6.298;2023-04-01T08:06:23;100375.06;;;11.90;91.10
24422;BME280;12600;53.326;-6.298;2023-04-01T08:09:25;100381.69;;;11.89;90.99
24422;BME280;12600;53.326;-6.298;2023-04-01T08:12:46;100401.16;;;11.88;90.60
24422;BME280;12600;53.326;-6.298;2023-04-01T08:16:03;100397.94;;;11.86;90.63
24422;BME280;12600;53.326;-6.298;2023-04-01T08:19:14;100413.25;;;11.95;90.76
24422;BME280;12600;53.326;-6.298;2023-04-01T08:22:18;100415.66;;;11.97;90.79
24422;BME280;12600;53.326;-6.298;2023-04-01T08:25:17;100418.38;;;11.97;90.78
24422;BME280;12600;53.326;-6.298;2023-04-01T08:28:17;100435.44;;;12.02;90.71
24422;BME280;12600;53.326;-6.298;2023-04-01T08:31:13;100431.75;;;11.98;90.54
24422;BME280;12600;53.326;-6.298;2023-04-01T08:34:10;100439.31;;;12.01;90.23
24422;BME280;12600;53.326;-6.298;2023-04-01T08:37:19;100450.09;;;11.98;90.49
24422;BME280;12600;53.326;-6.298;2023-04-01T08:44:24;100457.03;;;12.13;90.69
24422;BME280;12600;53.326;-6.298;2023-04-01T08:47:42;100464.91;;;12.14;90.53
24422;BME280;12600;53.326;-6.298;2023-04-01T08:50:55;100474.25;;;12.22;90.54
24422;BME280;12600;53.326;-6.298;2023-04-01T08:54:24;100487.28;;;12.25;90.81
24422;BME280;12600;53.326;-6.298;2023-04-01T08:57:35;100478.75;;;12.26;91.23
24422;BME280;12600;53.326;-6.298;2023-04-01T09:01:13;100489.38;;;12.37;90.97
24422;BME280;12600;53.326;-6.298;2023-04-01T09:04:26;100492.59;;;12.39;90.89
24422;BME280;12600;53.326;-6.298;2023-04-01T09:07:34;100507.56;;;12.50;91.09
24422;BME280;12600;53.326;-6.298;2023-04-01T09:14:37;100520.25;;;12.72;91.47
24422;BME280;12600;53.326;-6.298;2023-04-01T09:18:24;100520.22;;;12.80;90.91
24422;BME280;12600;53.326;-6.298;2023-04-01T09:22:02;100522.97;;;12.80;90.31
24422;BME280;12600;53.326;-6.298;2023-04-01T09:28:55;100544.75;;;12.77;90.13
24422;BME280;12600;53.326;-6.298;2023-04-01T09:32:09;100548.13;;;12.74;89.82
24422;BME280;12600;53.326;-6.298;2023-04-01T09:35:22;100546.38;;;12.69;89.55
24422;BME280;12600;53.326;-6.298;2023-04-01T09:38:22;100550.25;;;12.68;89.25
24422;BME280;12600;53.326;-6.298;2023-04-01T09:41:28;100559.09;;;12.74;90.19
24422;BME280;12600;53.326;-6.298;2023-04-01T09:44:34;100555.44;;;12.61;89.68
24422;BME280;12600;53.326;-6.298;2023-04-01T09:47:49;100565.09;;;12.58;88.48
24422;BME280;12600;53.326;-6.298;2023-04-01T09:50:52;100574.91;;;12.77;90.23
24422;BME280;12600;53.326;-6.298;2023-04-01T09:54:06;100580.84;;;12.87;89.87
24422;BME280;12600;53.326;-6.298;2023-04-01T09:57:58;100584.38;;;12.97;89.23
24422;BME280;12600;53.326;-6.298;2023-04-01T10:01:42;100580.13;;;13.16;89.82
24422;BME280;12600;53.326;-6.298;2023-04-01T10:12:59;100592.72;;;13.26;89.04
24422;BME280;12600;53.326;-6.298;2023-04-01T10:16:36;100609.81;;;13.14;88.29
24422;BME280;12600;53.326;-6.298;2023-04-01T10:20:12;100619.66;;;13.15;89.02
24422;BME280;12600;53.326;-6.298;2023-04-01T10:23:29;100630.31;;;13.26;89.21
24422;BME280;12600;53.326;-6.298;2023-04-01T10:26:49;100638.53;;;13.26;88.68
24422;BME280;12600;53.326;-6.298;2023-04-01T10:30:38;100645.28;;;13.37;87.93
24422;BME280;12600;53.326;-6.298;2023-04-01T10:34:44;100651.91;;;13.36;87.55
24422;BME280;12600;53.326;-6.298;2023-04-01T10:42:03;100660.50;;;13.17;86.16
24422;BME280;12600;53.326;-6.298;2023-04-01T10:46:13;100673.69;;;13.41;88.50
24422;BME280;12600;53.326;-6.298;2023-04-01T10:50:02;100674.25;;;13.64;87.56
24422;BME280;12600;53.326;-6.298;2023-04-01T10:53:37;100672.59;;;13.80;86.56
24422;BME280;12600;53.326;-6.298;2023-04-01T10:56:54;100681.56;;;13.89;85.42
24422;BME280;12600;53.326;-6.298;2023-04-01T11:00:32;100690.00;;;13.84;85.03
24422;BME280;12600;53.326;-6.298;2023-04-01T11:04:44;100695.84;;;13.74;84.88
24422;BME280;12600;53.326;-6.298;2023-04-01T11:09:26;100702.00;;;13.71;83.27
24422;BME280;12600;53.326;-6.298;2023-04-01T11:13:20;100708.78;;;14.03;85.44
24422;BME280;12600;53.326;-6.298;2023-04-01T11:20:42;100723.50;;;14.07;80.88
24422;BME280;12600;53.326;-6.298;2023-04-01T11:24:08;100726.03;;;14.21;81.63
24422;BME280;12600;53.326;-6.298;2023-04-01T11:27:35;100737.78;;;14.30;81.07
24422;BME280;12600;53.326;-6.298;2023-04-01T11:30:49;100736.22;;;14.41;82.89
24422;BME280;12600;53.326;-6.298;2023-04-01T11:33:47;100743.19;;;14.47;80.89
24422;BME280;12600;53.326;-6.298;2023-04-01T11:36:48;100746.59;;;14.44;79.07
24422;BME280;12600;53.326;-6.298;2023-04-01T11:40:06;100761.84;;;14.63;77.96
24422;BME280;12600;53.326;-6.298;2023-04-01T11:43:37;100760.59;;;14.81;77.77
24422;BME280;12600;53.326;-6.298;2023-04-01T11:47:27;100766.47;;;14.92;78.54
24422;BME280;12600;53.326;-6.298;2023-04-01T11:50:30;100766.22;;;15.05;78.55
24422;BME280;12600;53.326;-6.298;2023-04-01T11:53:36;100769.94;;;15.09;74.95
24422;BME280;12600;53.326;-6.298;2023-04-01T11:56:50;100779.78;;;15.10;74.50
24422;BME280;12600;53.326;-6.298;2023-04-01T11:59:56;100790.84;;;15.23;74.67
24422;BME280;12600;53.326;-6.298;2023-04-01T12:03:08;100788.19;;;15.47;74.29
24422;BME280;12600;53.326;-6.298;2023-04-01T12:06:11;100781.13;;;15.91;75.13
24422;BME280;12600;53.326;-6.298;2023-04-01T12:09:14;100801.03;;;16.46;73.51
24422;BME280;12600;53.326;-6.298;2023-04-01T12:12:19;100798.94;;;16.67;71.76
24422;BME280;12600;53.326;-6.298;2023-04-01T12:15:21;100795.84;;;16.81;72.16
24422;BME280;12600;53.326;-6.298;2023-04-01T12:18:21;100809.88;;;16.64;68.87
24422;BME280;12600;53.326;-6.298;2023-04-01T12:21:24;100812.06;;;16.46;68.88
24422;BME280;12600;53.326;-6.298;2023-04-01T12:24:38;100817.56;;;16.21;68.37
24422;BME280;12600;53.326;-6.298;2023-04-01T12:28:01;100826.88;;;16.17;68.69
24422;BME280;12600;53.326;-6.298;2023-04-01T12:31:13;100836.28;;;16.16;66.59
24422;BME280;12600;53.326;-6.298;2023-04-01T12:34:40;100832.50;;;16.33;65.11
24422;BME280;12600;53.326;-6.298;2023-04-01T12:37:41;100838.38;;;16.68;67.16
24422;BME280;12600;53.326;-6.298;2023-04-01T12:41:09;100841.44;;;17.15;69.37
24422;BME280;12600;53.326;-6.298;2023-04-01T12:44:29;100846.56;;;17.69;66.83
24422;BME280;12600;53.326;-6.298;2023-04-01T12:54:56;100865.59;;;17.18;61.86
24422;BME280;12600;53.326;-6.298;2023-04-01T12:58:17;100869.97;;;17.07;63.30
24422;BME280;12600;53.326;-6.298;2023-04-01T13:01:27;100872.78;;;16.95;64.51
24422;BME280;12600;53.326;-6.298;2023-04-01T13:05:04;100880.81;;;16.88;64.74
24422;BME280;12600;53.326;-6.298;2023-04-01T13:08:18;100876.88;;;16.52;63.40
24422;BME280;12600;53.326;-6.298;2023-04-01T13:11:20;100885.50;;;16.38;65.39
24422;BME280;12600;53.326;-6.298;2023-04-01T13:14:38;100894.06;;;16.25;65.05
24422;BME280;12600;53.326;-6.298;2023-04-01T13:17:36;100897.97;;;16.23;63.92
24422;BME280;12600;53.326;-6.298;2023-04-01T13:20:43;100896.63;;;16.30;64.65
24422;BME280;12600;53.326;-6.298;2023-04-01T13:23:43;100903.28;;;16.41;65.91
24422;BME280;12600;53.326;-6.298;2023-04-01T13:26:55;100900.28;;;16.21;65.06
24422;BME280;12600;53.326;-6.298;2023-04-01T13:30:07;100917.50;;;16.18;65.81
24422;BME280;12600;53.326;-6.298;2023-04-01T13:33:10;100916.03;;;16.21;67.34
24422;BME280;12600;53.326;-6.298;2023-04-01T13:36:15;100913.34;;;16.12;66.09
24422;BME280;12600;53.326;-6.298;2023-04-01T13:39:19;100929.16;;;16.03;65.10
24422;BME280;12600;53.326;-6.298;2023-04-01T13:42:22;100926.78;;;16.14;65.69
24422;BME280;12600;53.326;-6.298;2023-04-01T13:45:18;100933.81;;;16.23;66.04
24422;BME280;12600;53.326;-6.298;2023-04-01T13:48:28;100939.94;;;16.29;66.42
24422;BME280;12600;53.326;-6.298;2023-04-01T13:55:39;100956.50;;;16.08;66.68
24422;BME280;12600;53.326;-6.298;2023-04-01T13:59:08;100957.69;;;15.86;65.76
24422;BME280;12600;53.326;-6.298;2023-04-01T14:02:35;100963.00;;;15.91;67.57
24422;BME280;12600;53.326;-6.298;2023-04-01T14:05:44;100957.63;;;15.74;67.17
24422;BME280;12600;53.326;-6.298;2023-04-01T14:08:55;100986.53;;;15.59;66.91
24422;BME280;12600;53.326;-6.298;2023-04-01T14:11:55;100989.25;;;15.38;68.97
24422;BME280;12600;53.326;-6.298;2023-04-01T14:15:02;100995.44;;;15.06;71.40
24422;BME280;12600;53.326;-6.298;2023-04-01T14:18:31;100991.56;;;14.98;73.27
24422;BME280;12600;53.326;-6.298;2023-04-01T14:21:33;100996.47;;;14.93;73.54
24422;BME280;12600;53.326;-6.298;2023-04-01T14:24:41;100999.53;;;15.00;75.94
24422;BME280;12600;53.326;-6.298;2023-04-01T14:27:51;101005.84;;;15.00;76.86
24422;BME280;12600;53.326;-6.298;2023-04-01T14:30:57;101015.22;;;14.91;77.05
24422;BME280;12600;53.326;-6.298;2023-04-01T14:34:05;101024.63;;;14.90;76.44
24422;BME280;12600;53.326;-6.298;2023-04-01T14:37:13;101026.97;;;14.70;77.07
24422;BME280;12600;53.326;-6.298;2023-04-01T14:40:27;101034.28;;;14.49;77.65
24422;BME280;12600;53.326;-6.298;2023-04-01T14:47:34;101044.94;;;14.50;78.30
24422;BME280;12600;53.326;-6.298;2023-04-01T14:50:41;101047.56;;;14.47;78.32
24422;BME280;12600;53.326;-6.298;2023-04-01T14:53:37;101057.88;;;14.33;79.07
24422;BME280;12600;53.326;-6.298;2023-04-01T14:56:38;101047.53;;;14.21;78.84
24422;BME280;12600;53.326;-6.298;2023-04-01T14:59:29;101066.78;;;14.21;78.76
24422;BME280;12600;53.326;-6.298;2023-04-01T15:02:40;101067.09;;;14.28;79.32
24422;BME280;12600;53.326;-6.298;2023-04-01T15:05:43;101069.69;;;14.33;78.97
24422;BME280;12600;53.326;-6.298;2023-04-01T15:08:36;101084.06;;;14.30;80.85
24422;BME280;12600;53.326;-6.298;2023-04-01T15:11:48;101087.97;;;14.20;79.53
24422;BME280;12600;53.326;-6.298;2023-04-01T15:18:09;101102.66;;;14.07;79.88
24422;BME280;12600;53.326;-6.298;2023-04-01T15:21:25;101096.81;;;14.09;80.30
24422;BME280;12600;53.326;-6.298;2023-04-01T15:24:23;101102.00;;;14.02;79.64
24422;BME280;12600;53.326;-6.298;2023-04-01T15:27:28;101117.50;;;13.97;80.43
24422;BME280;12600;53.326;-6.298;2023-04-01T15:30:34;101122.19;;;13.88;80.87
24422;BME280;12600;53.326;-6.298;2023-04-01T15:33:42;101113.38;;;13.60;81.84
24422;BME280;12600;53.326;-6.298;2023-04-01T15:36:43;101122.56;;;13.56;82.21
24422;BME280;12600;53.326;-6.298;2023-04-01T15:39:48;101093.59;;;13.10;82.82
24422;BME280;12600;53.326;-6.298;2023-04-01T15:42:56;101142.16;;;13.32;84.03
24422;BME280;12600;53.326;-6.298;2023-04-01T15:45:57;101142.84;;;13.15;85.21
24422;BME280;12600;53.326;-6.298;2023-04-01T15:49:02;101157.69;;;13.14;85.36
24422;BME280;12600;53.326;-6.298;2023-04-01T15:52:06;101152.84;;;12.88;86.26
24422;BME280;12600;53.326;-6.298;2023-04-01T15:55:18;101159.38;;;13.01;86.61
24422;BME280;12600;53.326;-6.298;2023-04-01T15:58:37;101155.63;;;12.97;87.46
24422;BME280;12600;53.326;-6.298;2023-04-01T16:01:40;101170.25;;;12.84;87.39
24422;BME280;12600;53.326;-6.298;2023-04-01T16:04:46;101153.59;;;12.80;87.26
24422;BME280;12600;53.326;-6.298;2023-04-01T16:07:49;101183.75;;;12.80;88.31
24422;BME280;12600;53.326;-6.298;2023-04-01T16:11:04;101191.06;;;12.85;88.32
24422;BME280;12600;53.326;-6.298;2023-04-01T16:14:09;101196.16;;;12.78;88.27
24422;BME280;12600;53.326;-6.298;2023-04-01T16:20:25;101193.47;;;12.86;87.59
24422;BME280;12600;53.326;-6.298;2023-04-01T16:23:22;101200.16;;;12.94;87.35
24422;BME280;12600;53.326;-6.298;2023-04-01T16:26:18;101214.63;;;13.08;86.88
24422;BME280;12600;53.326;-6.298;2023-04-01T16:29:17;101221.59;;;13.14;86.81
24422;BME280;12600;53.326;-6.298;2023-04-01T16:32:31;101242.00;;;13.00;86.17
24422;BME280;12600;53.326;-6.298;2023-04-01T16:35:28;101236.34;;;12.82;85.12
24422;BME280;12600;53.326;-6.298;2023-04-01T16:38:26;101241.63;;;12.93;85.53
24422;BME280;12600;53.326;-6.298;2023-04-01T16:41:27;101232.69;;;12.87;85.20
24422;BME280;12600;53.326;-6.298;2023-04-01T16:44:21;101247.09;;;12.93;84.88
24422;BME280;12600;53.326;-6.298;2023-04-01T16:47:14;101263.16;;;12.85;84.50